Time;durP1;ratioP1;P1;durP2;ratioP2;P2;SDS_P1;SDS_P2;PMS_P1;PMS_P2;Temp;Humidity;BMP_temperature;BMP_pressure;BME280_temperature;BME280_humidity;BME280_pressure;Samples;Min_cycle;Max_cycle;Signal;HPM_P1;HPM_P2
2024/01/24 00:02:15;;;;;;;14.15;3.00;;;10.80;99.90;;;;;;5006912;28;20518;-78
2024/01/24 00:04:40;;;;;;;15.30;3.80;;;10.80;99.90;;;;;;5008017;28;20461;-78
2024/01/24 00:07:06;;;;;;;15.63;3.80;;;10.80;99.90;;;;;;5022835;28;20399;-78
2024/01/24 00:09:33;;;;;;;13.93;2.80;;;10.80;99.90;;;;;;5022956;28;20415;-78
2024/01/24 00:11:59;;;;;;;12.45;3.05;;;10.80;99.90;;;;;;5022754;28;20410;-78
2024/01/24 00:14:25;;;;;;;14.55;2.88;;;10.80;99.90;;;;;;5022062;28;20407;-77
2024/01/24 00:16:51;;;;;;;17.30;3.35;;;10.80;99.90;;;;;;5004737;28;20489;-78
2024/01/24 00:19:16;;;;;;;15.85;3.55;;;10.80;99.90;;;;;;5021915;28;20494;-78
2024/01/24 00:21:42;;;;;;;15.30;3.20;;;10.80;99.90;;;;;;5022751;28;20788;-78
2024/01/24 00:24:08;;;;;;;12.50;2.83;;;10.80;99.90;;;;;;5021412;28;20886;-78
2024/01/24 00:26:36;;;;;;;13.68;3.40;;;10.90;99.90;;;;;;5020440;28;20403;-78
2024/01/24 00:29:01;;;;;;;15.50;3.17;;;10.90;99.90;;;;;;5018748;28;20412;-78
2024/01/24 00:31:27;;;;;;;11.80;3.27;;;10.80;99.90;;;;;;5020746;28;20407;-78
2024/01/24 00:33:53;;;;;;;16.48;3.28;;;10.90;99.90;;;;;;5018568;28;20751;-78
2024/01/24 00:36:19;;;;;;;17.02;3.42;;;10.90;99.90;;;;;;5013948;28;20410;-79
2024/01/24 00:38:44;;;;;;;15.57;3.00;;;10.90;99.90;;;;;;5017974;28;20413;-78
2024/01/24 00:41:10;;;;;;;18.67;3.95;;;10.90;99.90;;;;;;5019368;28;20431;-78
2024/01/24 00:43:35;;;;;;;14.48;3.13;;;10.90;99.90;;;;;;5017963;28;20893;-77
2024/01/24 00:46:01;;;;;;;15.37;3.53;;;10.90;99.90;;;;;;5018656;28;20411;-78
2024/01/24 00:48:27;;;;;;;20.40;3.70;;;10.90;99.90;;;;;;5017511;28;20419;-78
2024/01/24 00:50:53;;;;;;;16.27;3.57;;;10.90;99.90;;;;;;5015223;28;20770;-78
2024/01/24 00:53:20;;;;;;;16.60;3.63;;;10.90;99.90;;;;;;5015217;28;20482;-77
2024/01/24 00:55:47;;;;;;;17.10;3.53;;;10.90;99.90;;;;;;5019192;28;20407;-78
2024/01/24 00:58:12;;;;;;;18.92;3.97;;;10.90;99.90;;;;;;5011143;28;20873;-78
2024/01/24 01:00:38;;;;;;;18.02;3.50;;;10.80;99.90;;;;;;5019423;28;20434;-78
2024/01/24 01:03:04;;;;;;;15.33;3.57;;;10.90;99.90;;;;;;5000190;28;20905;-78
2024/01/24 01:05:29;;;;;;;13.40;2.83;;;10.90;99.90;;;;;;5020266;28;20473;-78
2024/01/24 01:07:55;;;;;;;19.17;3.60;;;10.90;99.90;;;;;;5001355;28;20416;-78
2024/01/24 01:10:21;;;;;;;17.17;2.93;;;10.90;99.90;;;;;;5020465;28;20407;-78
2024/01/24 01:12:46;;;;;;;12.90;2.73;;;10.90;99.90;;;;;;5019443;28;20412;-78
2024/01/24 01:15:12;;;;;;;18.40;3.17;;;10.90;99.90;;;;;;4990810;28;20425;-78
2024/01/24 01:17:37;;;;;;;15.55;2.90;;;10.90;99.90;;;;;;5016404;28;20921;-78
2024/01/24 01:20:05;;;;;;;16.87;2.97;;;10.90;99.90;;;;;;5019850;28;20896;-78
2024/01/24 01:22:30;;;;;;;16.50;2.95;;;10.90;99.90;;;;;;5001642;28;20542;-78
2024/01/24 01:24:56;;;;;;;15.45;2.75;;;10.90;99.90;;;;;;5015819;28;20846;-78
2024/01/24 01:27:22;;;;;;;20.27;3.75;;;10.90;99.90;;;;;;4991044;28;20409;-78
2024/01/24 01:29:48;;;;;;;17.15;2.95;;;10.90;99.90;;;;;;5008665;28;20906;-78
2024/01/24 01:32:14;;;;;;;17.10;2.85;;;10.80;99.90;;;;;;5008597;28;20416;-78
2024/01/24 01:34:40;;;;;;;14.60;2.38;;;10.90;99.90;;;;;;4992274;28;20416;-78
2024/01/24 01:37:05;;;;;;;13.37;2.30;;;10.90;99.90;;;;;;5008909;28;20820;-78
2024/01/24 01:39:31;;;;;;;11.48;2.00;;;10.80;99.90;;;;;;4991736;28;21558;-78
2024/01/24 01:41:57;;;;;;;14.63;2.40;;;10.90;99.90;;;;;;5009199;28;20511;-78
2024/01/24 01:44:22;;;;;;;14.27;2.25;;;10.90;99.90;;;;;;4991064;28;20401;-78
2024/01/24 01:46:50;;;;;;;16.40;2.83;;;11.00;99.90;;;;;;5017156;28;20414;-78
2024/01/24 01:49:16;;;;;;;11.75;2.03;;;11.00;99.90;;;;;;5009166;28;20456;-78
2024/01/24 01:51:41;;;;;;;13.65;2.53;;;11.10;99.90;;;;;;4991394;28;20421;-78
2024/01/24 01:54:08;;;;;;;11.10;2.37;;;11.20;99.90;;;;;;5009278;28;20409;-78
2024/01/24 01:56:35;;;;;;;13.52;2.10;;;11.30;99.90;;;;;;4990983;28;20555;-78
2024/01/24 01:59:01;;;;;;;12.30;2.25;;;11.30;99.90;;;;;;5008726;28;20475;-78
2024/01/24 02:01:27;;;;;;;12.95;2.20;;;11.30;99.90;;;;;;5008300;28;20479;-78
2024/01/24 02:03:53;;;;;;;9.20;1.90;;;11.30;99.90;;;;;;5012864;28;20403;-79
2024/01/24 02:06:19;;;;;;;11.77;2.10;;;11.30;99.90;;;;;;5011963;28;20822;-78
2024/01/24 02:08:44;;;;;;;13.98;2.58;;;11.30;99.90;;;;;;5016930;28;20778;-78
2024/01/24 02:11:11;;;;;;;13.05;2.13;;;11.30;99.90;;;;;;5016590;28;20399;-78
2024/01/24 02:13:37;;;;;;;8.90;1.77;;;11.30;99.90;;;;;;5016229;28;20995;-78
2024/01/24 02:16:06;;;;;;;10.57;1.93;;;11.30;99.90;;;;;;5016452;28;20412;-78
2024/01/24 02:18:31;;;;;;;10.32;1.60;;;11.40;99.90;;;;;;5021251;28;20457;-78
2024/01/24 02:20:57;;;;;;;11.13;2.25;;;11.40;99.90;;;;;;5018757;28;20877;-79
2024/01/24 02:23:25;;;;;;;11.07;1.88;;;11.40;99.90;;;;;;5020700;28;20417;-78
2024/01/24 02:25:52;;;;;;;9.43;1.30;;;11.50;99.90;;;;;;5017898;28;20408;-78
2024/01/24 02:28:18;;;;;;;7.90;1.42;;;11.40;99.90;;;;;;5033282;28;20432;-78
2024/01/24 02:30:44;;;;;;;10.57;1.73;;;11.40;99.90;;;;;;4993791;28;20463;-78
2024/01/24 02:33:10;;;;;;;10.00;1.95;;;11.40;99.90;;;;;;5016843;28;20419;-78
2024/01/24 02:35:36;;;;;;;9.02;1.48;;;11.40;99.90;;;;;;5002093;28;20412;-78
2024/01/24 02:38:01;;;;;;;9.65;1.80;;;11.40;99.90;;;;;;5022966;28;20764;-78
2024/01/24 02:40:27;;;;;;;7.00;1.40;;;11.50;99.90;;;;;;5001581;28;20452;-78
2024/01/24 02:42:53;;;;;;;8.93;1.73;;;11.40;99.90;;;;;;5022104;28;20423;-78
2024/01/24 02:45:19;;;;;;;10.25;1.83;;;11.40;99.90;;;;;;5019208;28;20984;-77
2024/01/24 02:47:45;;;;;;;9.70;1.63;;;11.50;99.90;;;;;;5023032;28;20410;-78
2024/01/24 02:50:11;;;;;;;12.93;1.92;;;11.60;99.90;;;;;;5019626;28;20405;-78
2024/01/24 02:52:38;;;;;;;10.05;1.40;;;11.70;99.00;;;;;;5022837;28;20414;-78
2024/01/24 02:55:04;;;;;;;9.60;1.75;;;11.70;99.10;;;;;;5018706;28;20405;-77
2024/01/24 02:57:29;;;;;;;9.35;1.52;;;11.70;98.30;;;;;;5023531;28;20399;-78
2024/01/24 02:59:55;;;;;;;9.13;1.67;;;11.70;97.20;;;;;;5019402;28;20779;-79
2024/01/24 03:02:20;;;;;;;9.07;1.70;;;11.80;97.10;;;;;;5023732;28;20476;-79
2024/01/24 03:04:46;;;;;;;12.38;2.05;;;11.70;96.20;;;;;;5019521;28;20409;-78
2024/01/24 03:07:11;;;;;;;11.77;2.00;;;11.70;95.80;;;;;;5017908;28;20420;-78
2024/01/24 03:09:37;;;;;;;8.90;1.57;;;11.70;95.10;;;;;;5017324;28;20971;-79
2024/01/24 03:12:03;;;;;;;14.33;2.30;;;11.70;94.90;;;;;;5014364;28;20413;-78
2024/01/24 03:14:28;;;;;;;10.90;2.25;;;11.70;94.10;;;;;;5011082;28;20444;-78
2024/01/24 03:16:54;;;;;;;12.13;2.00;;;11.70;92.70;;;;;;5010655;28;20408;-78
2024/01/24 03:19:20;;;;;;;9.95;2.20;;;11.70;93.10;;;;;;5016959;28;20412;-78
2024/01/24 03:21:46;;;;;;;18.10;4.03;;;11.70;92.20;;;;;;5016090;28;20436;-78
2024/01/24 03:24:12;;;;;;;13.55;3.05;;;11.70;91.50;;;;;;4993492;28;21006;-78
2024/01/24 03:26:37;;;;;;;13.07;2.90;;;11.70;90.30;;;;;;5017493;28;20439;-78
2024/01/24 03:29:03;;;;;;;17.70;3.47;;;11.60;90.20;;;;;;4998947;28;20968;-78
2024/01/24 03:31:28;;;;;;;14.27;2.70;;;11.60;88.50;;;;;;5021526;28;20403;-78
2024/01/24 03:33:54;;;;;;;16.87;3.73;;;11.50;90.20;;;;;;5016058;28;20417;-78
2024/01/24 03:36:20;;;;;;;16.13;2.83;;;11.50;88.30;;;;;;5004228;28;20415;-79
2024/01/24 03:38:47;;;;;;;13.10;2.42;;;11.40;90.60;;;;;;4993244;28;20987;-78
2024/01/24 03:41:12;;;;;;;16.92;3.03;;;11.40;88.20;;;;;;5021365;28;20431;-78
2024/01/24 03:43:39;;;;;;;22.10;3.87;;;11.40;90.20;;;;;;5003882;28;20407;-78
2024/01/24 03:46:05;;;;;;;15.50;3.15;;;11.30;90.50;;;;;;4998469;28;20910;-78
2024/01/24 03:48:31;;;;;;;16.88;3.85;;;11.30;88.70;;;;;;5003882;28;20407;-79
2024/01/24 03:50:56;;;;;;;16.23;3.17;;;11.30;90.40;;;;;;5015810;28;20409;-78
2024/01/24 03:53:22;;;;;;;20.58;3.17;;;11.20;90.10;;;;;;5021253;28;20831;-78
2024/01/24 03:55:48;;;;;;;18.05;3.55;;;11.20;89.10;;;;;;5010052;28;20466;-78
2024/01/24 03:58:13;;;;;;;19.43;4.00;;;11.20;88.70;;;;;;5015453;28;20405;-78
2024/01/24 04:00:39;;;;;;;20.63;4.05;;;11.10;88.00;;;;;;5010456;28;20432;-78
2024/01/24 04:03:04;;;;;;;20.97;4.53;;;11.20;89.30;;;;;;4998534;28;20434;-78
2024/01/24 04:05:30;;;;;;;21.67;4.05;;;11.20;89.00;;;;;;4998145;28;20412;-78
2024/01/24 04:07:56;;;;;;;18.43;4.13;;;11.10;89.60;;;;;;5021285;28;20415;-78
2024/01/24 04:10:21;;;;;;;21.90;4.13;;;11.10;89.20;;;;;;4997645;28;20413;-78
2024/01/24 04:12:47;;;;;;;19.55;3.92;;;11.10;88.50;;;;;;5021605;28;20417;-78
2024/01/24 04:15:13;;;;;;;18.37;2.93;;;11.10;89.00;;;;;;5016168;28;20448;-78
2024/01/24 04:17:39;;;;;;;20.60;3.53;;;11.10;89.70;;;;;;4992817;28;20458;-78
2024/01/24 04:20:05;;;;;;;20.23;4.70;;;11.10;88.90;;;;;;5010083;28;20411;-78
2024/01/24 04:22:31;;;;;;;19.03;4.23;;;11.10;87.50;;;;;;4991474;28;20409;-78
2024/01/24 04:24:57;;;;;;;18.43;3.63;;;11.10;85.80;;;;;;5010531;28;20408;-78
2024/01/24 04:27:23;;;;;;;18.93;3.87;;;11.10;84.10;;;;;;5009213;28;20405;-80
2024/01/24 04:29:48;;;;;;;17.15;2.75;;;11.20;84.20;;;;;;5009613;28;21319;-77
2024/01/24 04:32:14;;;;;;;14.93;3.07;;;11.20;82.10;;;;;;5009994;28;20770;-78
2024/01/24 04:34:39;;;;;;;18.58;4.38;;;11.20;79.10;;;;;;5010197;28;20488;-78
2024/01/24 04:37:05;;;;;;;17.17;4.00;;;11.10;78.10;;;;;;5009860;28;20818;-78
2024/01/24 04:39:30;;;;;;;19.98;4.13;;;11.20;76.50;;;;;;5009550;28;20910;-78
2024/01/24 04:41:57;;;;;;;20.97;3.80;;;11.10;74.90;;;;;;5008976;28;20421;-78
2024/01/24 04:44:23;;;;;;;17.70;3.72;;;11.10;76.10;;;;;;5009652;28;20408;-78
2024/01/24 04:46:48;;;;;;;24.10;4.93;;;11.10;76.50;;;;;;5022049;28;20417;-79
2024/01/24 04:49:14;;;;;;;21.30;4.47;;;11.00;77.30;;;;;;5015853;28;20409;-78
2024/01/24 04:51:40;;;;;;;27.00;4.75;;;11.00;75.00;;;;;;4992021;28;20421;-78
2024/01/24 04:54:06;;;;;;;25.80;5.03;;;10.90;73.40;;;;;;5016058;28;20413;-78
2024/01/24 04:56:33;;;;;;;20.77;4.37;;;10.90;71.10;;;;;;5015093;28;20426;-78
2024/01/24 04:58:59;;;;;;;23.55;4.78;;;10.90;72.50;;;;;;5016614;28;20397;-78
2024/01/24 05:01:24;;;;;;;24.05;5.40;;;10.80;71.70;;;;;;5004343;28;20777;-78
2024/01/24 05:03:50;;;;;;;21.40;4.95;;;10.70;71.20;;;;;;4999663;28;20755;-78
2024/01/24 05:06:16;;;;;;;27.33;5.23;;;10.70;70.20;;;;;;5004214;28;20407;-78
2024/01/24 05:08:41;;;;;;;27.65;5.43;;;10.60;72.80;;;;;;5000106;28;20424;-77
2024/01/24 05:11:07;;;;;;;26.20;4.85;;;10.60;73.90;;;;;;5021031;28;20411;-78
2024/01/24 05:13:33;;;;;;;21.90;4.37;;;10.50;74.10;;;;;;5001998;28;20417;-78
2024/01/24 05:15:59;;;;;;;29.67;6.13;;;10.50;74.10;;;;;;5016487;28;20905;-78
2024/01/24 05:18:24;;;;;;;24.00;5.10;;;10.50;71.70;;;;;;5014721;28;20408;-78
2024/01/24 05:20:50;;;;;;;27.57;6.07;;;10.50;73.20;;;;;;5019151;28;20437;-78
2024/01/24 05:23:16;;;;;;;24.40;6.00;;;10.50;73.80;;;;;;5014127;28;20415;-78
2024/01/24 05:25:42;;;;;;;26.80;5.72;;;10.50;72.10;;;;;;5000840;28;20407;-78
2024/01/24 05:28:09;;;;;;;26.50;5.65;;;10.50;71.30;;;;;;5029557;28;20413;-78
2024/01/24 05:30:35;;;;;;;26.65;5.32;;;10.50;70.50;;;;;;5001490;28;20962;-78
2024/01/24 05:33:00;;;;;;;27.52;6.25;;;10.50;69.70;;;;;;5000922;28;20448;-78
2024/01/24 05:35:26;;;;;;;30.80;6.47;;;10.50;68.80;;;;;;5013445;28;20434;-78
2024/01/24 05:37:52;;;;;;;24.58;4.93;;;10.50;66.70;;;;;;4996000;28;20467;-78
2024/01/24 05:40:17;;;;;;;26.90;5.75;;;10.50;65.60;;;;;;5017195;28;20476;-78
2024/01/24 05:42:44;;;;;;;29.98;5.82;;;10.50;64.30;;;;;;5013400;28;20487;-78
2024/01/24 05:45:11;;;;;;;25.73;5.63;;;10.50;60.00;;;;;;5017261;28;20474;-78
2024/01/24 05:47:37;;;;;;;29.77;6.65;;;10.50;55.10;;;;;;5013300;28;20412;-78
2024/01/24 05:50:03;;;;;;;31.50;6.40;;;10.60;50.80;;;;;;4999636;28;20410;-78
2024/01/24 05:52:29;;;;;;;29.73;6.00;;;10.60;48.60;;;;;;5000462;28;20431;-78
2024/01/24 05:54:54;;;;;;;33.07;7.13;;;10.60;46.60;;;;;;5006501;28;20902;-79
2024/01/24 05:57:21;;;;;;;28.35;6.28;;;10.60;49.00;;;;;;5007745;28;20419;-78
2024/01/24 05:59:47;;;;;;;32.83;6.60;;;10.60;44.80;;;;;;5009075;28;20408;-79
2024/01/24 06:02:13;;;;;;;31.63;6.70;;;10.60;41.40;;;;;;4989431;28;20990;-79
2024/01/24 06:04:39;;;;;;;35.87;7.27;;;10.60;41.70;;;;;;5008538;28;20459;-79
2024/01/24 06:07:06;;;;;;;35.08;7.45;;;10.60;40.60;;;;;;4990605;28;20455;-79
2024/01/24 06:09:32;;;;;;;35.15;7.07;;;10.50;41.20;;;;;;5013707;28;20440;-78
2024/01/24 06:11:58;;;;;;;33.88;6.78;;;10.50;37.90;;;;;;5007686;28;20416;-79
2024/01/24 06:14:24;;;;;;;33.03;7.57;;;10.40;41.00;;;;;;5011164;28;21011;-79
2024/01/24 06:16:50;;;;;;;31.15;5.88;;;10.30;41.90;;;;;;5014600;28;20459;-79
2024/01/24 06:19:15;;;;;;;29.05;6.63;;;10.30;38.60;;;;;;5013181;28;20405;-79
2024/01/24 06:21:41;;;;;;;35.53;7.40;;;10.30;36.30;;;;;;5009148;28;20544;-78
2024/01/24 06:24:07;;;;;;;36.30;7.43;;;10.20;35.20;;;;;;5006415;28;20432;-79
2024/01/24 06:26:32;;;;;;;33.00;7.47;;;10.20;32.40;;;;;;5007104;28;20458;-79
2024/01/24 06:28:58;;;;;;;32.77;6.50;;;10.20;31.40;;;;;;5015282;28;20433;-79
2024/01/24 06:31:24;;;;;;;33.35;7.03;;;10.20;28.30;;;;;;5007678;28;20427;-78
2024/01/24 06:33:50;;;;;;;32.27;7.23;;;10.20;23.50;;;;;;5011595;28;20415;-78
2024/01/24 06:36:16;;;;;;;33.20;7.00;;;10.30;23.20;;;;;;5014205;28;20404;-79
2024/01/24 06:38:42;;;;;;;32.87;7.33;;;10.20;25.10;;;;;;5019898;28;20406;-78
2024/01/24 06:41:07;;;;;;;29.88;6.80;;;10.20;21.90;;;;;;4994471;28;20483;-79
2024/01/24 06:43:35;;;;;;;35.40;7.15;;;10.20;17.50;;;;;;5001592;28;20418;-79
2024/01/24 06:46:02;;;;;;;34.90;7.15;;;10.20;21.10;;;;;;5012148;28;20428;-80
2024/01/24 06:48:28;;;;;;;34.25;7.38;;;10.10;21.90;;;;;;5018133;28;20434;-80
2024/01/24 06:50:54;;;;;;;39.27;7.93;;;10.00;21.30;;;;;;5015278;28;21056;-80
2024/01/24 06:53:20;;;;;;;35.40;7.68;;;10.00;26.20;;;;;;5013279;28;20504;-79
2024/01/24 06:55:46;;;;;;;34.00;7.30;;;9.90;26.40;;;;;;5008219;28;20411;-79
2024/01/24 06:58:12;;;;;;;38.80;7.17;;;9.90;28.00;;;;;;5020253;28;20510;-79
2024/01/24 07:00:37;;;;;;;36.78;8.05;;;9.90;28.10;;;;;;5014433;28;20429;-79
2024/01/24 07:03:03;;;;;;;34.23;7.73;;;9.90;28.00;;;;;;5015008;28;20410;-78
2024/01/24 07:05:29;;;;;;;31.58;7.28;;;9.90;26.70;;;;;;5011967;28;20459;-78
2024/01/24 07:07:56;;;;;;;35.33;7.73;;;9.90;23.30;;;;;;4997198;28;20434;-78
2024/01/24 07:10:22;;;;;;;31.10;7.80;;;9.90;23.30;;;;;;5014056;28;20810;-78
2024/01/24 07:12:47;;;;;;;35.80;7.97;;;9.90;21.60;;;;;;5021916;28;20525;-79
2024/01/24 07:15:17;;;;;;;30.70;7.68;;;10.00;19.10;;;;;;5016519;28;20561;-79
2024/01/24 07:17:43;;;;;;;33.47;7.55;;;10.00;12.90;;;;;;5015414;28;20434;-79
2024/01/24 07:20:09;;;;;;;35.65;7.75;;;10.00;18.00;;;;;;5005640;28;20558;-80
2024/01/24 07:22:35;;;;;;;32.17;7.00;;;10.10;8.30;;;;;;5023045;28;20460;-79
2024/01/24 07:25:04;;;;;;;35.73;7.80;;;10.10;11.20;;;;;;5015444;28;20507;-79
2024/01/24 07:27:30;;;;;;;26.42;6.28;;;10.10;11.10;;;;;;5014711;28;20427;-79
2024/01/24 07:29:55;;;;;;;29.77;6.07;;;10.00;9.80;;;;;;5014889;28;20412;-80
2024/01/24 07:32:21;;;;;;;33.13;6.80;;;10.00;9.40;;;;;;5020488;28;20760;-79
2024/01/24 07:34:47;;;;;;;32.77;6.83;;;10.00;10.30;;;;;;5015390;28;20527;-79
2024/01/24 07:37:13;;;;;;;31.45;6.78;;;9.90;6.60;;;;;;5020306;28;20407;-79
2024/01/24 07:39:39;;;;;;;29.85;6.70;;;9.90;9.50;;;;;;5014393;28;20433;-80
2024/01/24 07:42:05;;;;;;;31.67;7.70;;;9.80;9.40;;;;;;5016039;28;20454;-79
2024/01/24 07:44:30;;;;;;;32.72;7.97;;;9.80;13.00;;;;;;4998155;28;21140;-80
2024/01/24 07:46:56;;;;;;;37.20;7.03;;;9.70;11.20;;;;;;5018558;28;20428;-80
2024/01/24 07:49:23;;;;;;;28.88;6.57;;;9.70;13.10;;;;;;5009312;28;20423;-80
2024/01/24 07:51:48;;;;;;;30.73;6.57;;;9.70;12.00;;;;;;5018733;28;20562;-79
2024/01/24 07:54:17;;;;;;;30.65;7.25;;;9.70;11.50;;;;;;5015735;28;20436;-79
2024/01/24 07:56:43;;;;;;;31.17;6.72;;;9.70;11.10;;;;;;5017025;28;20507;-79
2024/01/24 07:59:11;;;;;;;32.65;6.85;;;9.70;11.60;;;;;;5010405;28;20444;-80
2024/01/24 08:01:37;;;;;;;28.77;6.65;;;9.70;13.80;;;;;;5018754;28;20459;-80
2024/01/24 08:04:03;;;;;;;29.17;6.00;;;9.70;11.60;;;;;;5018651;28;20501;-79
2024/01/24 08:06:28;;;;;;;31.52;6.40;;;9.70;12.60;;;;;;5022876;28;20409;-79
2024/01/24 08:08:54;;;;;;;33.92;6.95;;;9.70;11.50;;;;;;5010754;28;20432;-79
2024/01/24 08:11:21;;;;;;;32.07;7.27;;;9.70;12.00;;;;;;5023797;28;20403;-80
2024/01/24 08:13:47;;;;;;;31.45;7.38;;;9.70;13.30;;;;;;5010638;28;20504;-80
2024/01/24 08:16:13;;;;;;;37.43;6.83;;;9.70;13.80;;;;;;5022510;28;20944;-79
2024/01/24 08:18:38;;;;;;;33.67;7.53;;;9.80;15.00;;;;;;5009307;28;20432;-80
2024/01/24 08:21:04;;;;;;;33.70;7.13;;;9.80;16.90;;;;;;5009210;28;20551;-78
2024/01/24 08:23:29;;;;;;;28.87;6.23;;;9.70;18.70;;;;;;5014978;28;20463;-79
2024/01/24 08:25:55;;;;;;;29.33;7.25;;;9.70;20.10;;;;;;5013649;28;20499;-78
2024/01/24 08:28:21;;;;;;;31.65;6.35;;;9.70;17.80;;;;;;5008878;28;20432;-78
2024/01/24 08:30:47;;;;;;;30.47;5.87;;;9.80;18.80;;;;;;5008802;28;20397;-78
2024/01/24 08:33:12;;;;;;;29.70;6.25;;;9.80;17.80;;;;;;5010940;28;20417;-78
2024/01/24 08:35:38;;;;;;;33.53;7.57;;;9.80;18.90;;;;;;5021113;28;20402;-78
2024/01/24 08:38:04;;;;;;;32.85;6.93;;;9.80;19.40;;;;;;4996955;28;20432;-77
2024/01/24 08:40:30;;;;;;;34.00;6.32;;;9.80;19.90;;;;;;4997343;28;20417;-77
2024/01/24 08:42:55;;;;;;;35.03;7.82;;;9.80;19.60;;;;;;4998198;28;20428;-78
2024/01/24 08:45:22;;;;;;;31.80;7.33;;;9.80;20.40;;;;;;5012401;28;20920;-79
2024/01/24 08:47:47;;;;;;;34.93;7.00;;;9.70;18.50;;;;;;4995217;28;20913;-76
2024/01/24 08:50:13;;;;;;;36.30;6.77;;;9.70;19.30;;;;;;5009598;28;20404;-77
2024/01/24 08:52:39;;;;;;;32.88;6.75;;;9.80;19.40;;;;;;5014580;28;20409;-76
2024/01/24 08:55:08;;;;;;;33.80;7.10;;;9.70;17.90;;;;;;5009541;28;20906;-77
2024/01/24 09:08:12;;;;;;;30.13;6.13;;;9.80;19.50;;;;;;4655890;29;20527;-76
2024/01/24 09:10:38;;;;;;;30.17;6.97;;;9.80;17.40;;;;;;4894234;29;20944;-84
2024/01/24 09:13:03;;;;;;;25.23;5.15;;;9.80;14.50;;;;;;4895157;29;20773;-76
2024/01/24 09:15:29;;;;;;;31.23;6.47;;;9.90;13.30;;;;;;4887290;29;20419;-76
2024/01/24 09:17:54;;;;;;;30.20;7.47;;;9.80;15.50;;;;;;4890215;29;20435;-81
2024/01/24 09:20:20;;;;;;;31.75;6.88;;;9.90;15.80;;;;;;4889898;29;20462;-83
2024/01/24 09:22:46;;;;;;;32.17;6.88;;;9.90;17.50;;;;;;4888093;29;20430;-77
2024/01/24 09:25:12;;;;;;;30.60;6.10;;;9.90;19.70;;;;;;4888613;29;20534;-77
2024/01/24 09:27:37;;;;;;;32.55;7.53;;;9.90;17.80;;;;;;4883995;29;20571;-78
2024/01/24 09:30:04;;;;;;;33.92;7.03;;;9.90;16.60;;;;;;4890493;29;20805;-78
2024/01/24 09:32:29;;;;;;;34.03;6.60;;;9.90;15.50;;;;;;4891376;29;20521;-77
2024/01/24 09:34:55;;;;;;;31.40;6.40;;;10.00;15.40;;;;;;4890098;29;20594;-77
2024/01/24 09:37:20;;;;;;;37.13;7.47;;;10.00;13.20;;;;;;4891895;29;20407;-78
2024/01/24 09:39:47;;;;;;;30.83;7.37;;;10.00;13.30;;;;;;4891979;29;20411;-77
2024/01/24 09:42:20;;;;;;;32.45;6.68;;;10.00;12.80;;;;;;4892703;29;20442;-77
2024/01/24 09:44:51;;;;;;;29.20;6.57;;;10.00;12.90;;;;;;4891642;29;20971;-77
2024/01/24 09:47:17;;;;;;;34.60;7.50;;;10.00;13.40;;;;;;4892497;29;20427;-77
2024/01/24 09:49:43;;;;;;;31.73;6.75;;;10.10;12.70;;;;;;4889396;29;20450;-77
2024/01/24 09:52:12;;;;;;;30.50;6.95;;;10.10;12.30;;;;;;4882760;29;20505;-77
2024/01/24 09:54:38;;;;;;;37.75;7.38;;;10.10;9.80;;;;;;4889511;29;20918;-77
2024/01/24 09:57:06;;;;;;;35.65;6.97;;;10.20;10.70;;;;;;4884065;29;20427;-77
2024/01/24 09:59:32;;;;;;;36.63;7.22;;;10.20;8.90;;;;;;4893139;29;20964;-77
2024/01/24 10:01:58;;;;;;;30.67;6.50;;;10.20;7.30;;;;;;4892852;29;20522;-77
2024/01/24 10:04:24;;;;;;;26.98;7.38;;;10.30;6.40;;;;;;4892924;29;20486;-77
2024/01/24 10:06:52;;;;;;;30.92;6.18;;;10.30;5.70;;;;;;4892143;29;20438;-77
2024/01/24 10:09:17;;;;;;;28.67;5.85;;;10.30;3.40;;;;;;4891278;29;20514;-77
2024/01/24 10:11:43;;;;;;;33.92;7.05;;;10.40;3.70;;;;;;4892403;29;20547;-77
2024/01/24 10:14:08;;;;;;;30.73;7.43;;;10.40;4.70;;;;;;4888731;29;20499;-77
2024/01/24 10:16:35;;;;;;;33.05;6.88;;;10.50;5.10;;;;;;4882956;29;20415;-77
2024/01/24 10:19:00;;;;;;;32.58;6.78;;;10.50;1.90;;;;;;4890054;29;20818;-77
2024/01/24 10:21:26;;;;;;;32.92;6.45;;;10.50;1.00;;;;;;4882899;29;20442;-77
2024/01/24 10:23:55;;;;;;;33.47;7.10;;;10.50;4.20;;;;;;4892058;29;21229;-77
2024/01/24 10:26:20;;;;;;;33.00;7.18;;;10.60;1.20;;;;;;4892693;29;20502;-77
2024/01/24 10:28:46;;;;;;;31.20;6.47;;;10.50;2.90;;;;;;4891414;29;20452;-77
2024/01/24 10:31:12;;;;;;;27.02;6.30;;;10.60;1.00;;;;;;4891893;29;20961;-77
2024/01/24 10:33:40;;;;;;;31.20;6.78;;;10.60;1.00;;;;;;4889820;29;20518;-77
2024/01/24 10:36:08;;;;;;;26.67;5.40;;;10.60;1.00;;;;;;4890978;29;20868;-77
2024/01/24 10:38:38;;;;;;;29.37;6.10;;;10.50;1.00;;;;;;4885831;29;20424;-77
2024/01/24 10:41:06;;;;;;;29.52;6.63;;;10.50;1.00;;;;;;4883195;29;20453;-77
2024/01/24 10:43:34;;;;;;;32.30;7.13;;;10.50;1.00;;;;;;4888568;29;20488;-77
2024/01/24 10:46:00;;;;;;;29.73;6.30;;;10.50;1.00;;;;;;4881172;29;20428;-77
2024/01/24 10:48:27;;;;;;;31.40;6.50;;;10.50;1.00;;;;;;4889777;29;20423;-77
2024/01/24 10:50:53;;;;;;;28.23;6.40;;;10.50;1.00;;;;;;4894199;29;20708;-77
2024/01/24 10:53:20;;;;;;;31.20;6.72;;;10.50;1.00;;;;;;4891105;29;20429;-78
2024/01/24 10:55:50;;;;;;;31.42;6.30;;;10.50;1.00;;;;;;4894673;29;20419;-77
2024/01/24 10:58:17;;;;;;;23.83;5.13;;;10.40;1.00;;;;;;4891944;29;20421;-77
2024/01/24 11:00:42;;;;;;;28.33;6.47;;;10.40;1.00;;;;;;4893792;29;20439;-77
2024/01/24 11:03:08;;;;;;;26.50;5.70;;;10.50;1.00;;;;;;4890990;29;20518;-77
2024/01/24 11:05:45;;;;;;;25.38;6.55;;;10.40;1.00;;;;;;4892951;29;20415;-78
2024/01/24 11:08:13;;;;;;;28.87;6.73;;;10.50;1.00;;;;;;4890774;29;20438;-77
2024/01/24 11:10:44;;;;;;;27.13;5.50;;;10.50;1.00;;;;;;4890226;29;20898;-77
2024/01/24 11:13:13;;;;;;;30.10;6.77;;;10.50;1.00;;;;;;4890912;29;20450;-77
2024/01/24 11:15:40;;;;;;;31.40;6.10;;;10.40;1.00;;;;;;4867979;29;20426;-77
2024/01/24 11:18:24;;;;;;;26.53;5.90;;;10.50;1.00;;;;;;4885257;29;20407;-77
2024/01/24 11:20:52;;;;;;;28.00;6.20;;;10.50;1.00;;;;;;4895641;29;20469;-77
2024/01/24 11:23:46;;;;;;;28.38;6.00;;;10.50;1.00;;;;;;4895472;29;20415;-77
2024/01/24 11:26:17;;;;;;;24.52;5.43;;;10.50;1.00;;;;;;4866480;29;20488;-77
2024/01/24 11:28:43;;;;;;;25.25;5.65;;;10.50;1.00;;;;;;4877665;29;20446;-77
2024/01/24 11:31:10;;;;;;;26.17;5.72;;;10.50;1.00;;;;;;4877137;29;20432;-77
2024/01/24 11:33:36;;;;;;;26.17;5.70;;;10.50;1.00;;;;;;4879461;29;20774;-77
2024/01/24 11:36:12;;;;;;;25.67;5.28;;;10.60;1.00;;;;;;4895073;29;20423;-77
2024/01/24 11:38:38;;;;;;;28.65;5.97;;;10.60;1.00;;;;;;4893427;29;20423;-77
2024/01/24 11:41:24;;;;;;;28.13;5.68;;;10.60;1.00;;;;;;4894137;29;20454;-77
2024/01/24 11:43:49;;;;;;;28.15;6.35;;;10.70;1.00;;;;;;4893679;29;20423;-77
2024/01/24 11:46:15;;;;;;;26.87;6.80;;;10.70;1.00;;;;;;4882637;29;20416;-77
2024/01/24 11:48:40;;;;;;;30.48;6.00;;;10.80;1.00;;;;;;4893272;29;20426;-77
2024/01/24 11:51:11;;;;;;;27.63;5.47;;;10.80;1.00;;;;;;4892829;29;20423;-77
2024/01/24 11:53:37;;;;;;;22.27;5.35;;;10.80;1.00;;;;;;4892498;29;20533;-77
2024/01/24 11:56:07;;;;;;;31.50;5.97;;;10.80;1.00;;;;;;4892154;29;20493;-77
2024/01/24 11:58:33;;;;;;;24.90;6.13;;;10.80;1.00;;;;;;4892755;29;20434;-77
2024/01/24 12:01:04;;;;;;;33.45;7.15;;;10.80;1.00;;;;;;4891686;29;20518;-77
2024/01/24 12:03:30;;;;;;;31.17;5.90;;;10.80;1.00;;;;;;4883129;29;20438;-77
2024/01/24 12:05:56;;;;;;;31.75;6.43;;;10.80;1.00;;;;;;4891592;29;20419;-78
2024/01/24 12:08:22;;;;;;;29.00;6.57;;;10.80;1.00;;;;;;4893490;29;20802;-78
2024/01/24 12:10:47;;;;;;;27.92;5.32;;;10.80;1.00;;;;;;4891528;29;20442;-77
2024/01/24 12:13:14;;;;;;;32.00;6.88;;;10.80;1.00;;;;;;4893210;29;20411;-77
2024/01/24 12:15:42;;;;;;;24.30;5.85;;;10.80;1.00;;;;;;4879908;29;20459;-77
2024/01/24 12:18:13;;;;;;;35.72;7.30;;;10.80;1.00;;;;;;4876197;29;20427;-77
2024/01/24 12:20:44;;;;;;;30.48;6.78;;;10.90;1.00;;;;;;4888404;29;20802;-77
2024/01/24 12:23:10;;;;;;;28.33;6.03;;;11.00;1.00;;;;;;4875917;29;20417;-77
2024/01/24 12:25:36;;;;;;;33.67;6.77;;;11.00;1.00;;;;;;4891820;29;20430;-77
2024/01/24 12:28:02;;;;;;;28.87;6.13;;;11.10;1.00;;;;;;4894131;29;20419;-77
2024/01/24 12:30:34;;;;;;;26.15;5.70;;;11.10;1.00;;;;;;4878371;29;20420;-77
2024/01/24 12:33:01;;;;;;;32.50;6.35;;;11.00;1.00;;;;;;4885165;29;20434;-77
2024/01/24 12:35:28;;;;;;;31.40;7.43;;;11.00;1.00;;;;;;4891362;29;20411;-77
2024/01/24 12:38:01;;;;;;;31.30;6.50;;;11.00;1.00;;;;;;4893073;29;20431;-78
2024/01/24 12:40:27;;;;;;;27.10;6.20;;;11.00;1.00;;;;;;4891428;29;20415;-77
2024/01/24 12:42:53;;;;;;;27.40;5.43;;;11.10;1.00;;;;;;4892737;29;20415;-77
2024/01/24 12:45:22;;;;;;;31.55;6.85;;;11.10;1.00;;;;;;4879930;29;20996;-77
2024/01/24 12:47:48;;;;;;;32.90;7.13;;;11.00;1.00;;;;;;4891565;29;20407;-77